sensor_id;sensor_type;location;lat;lon;timestamp;temperature;humidity
52435;DHT22;38354;52.892;6.148;2022-11-12T05:00:54;5.20;99.90
52435;DHT22;38354;52.892;6.148;2022-11-12T05:03:19;5.20;99.90
52435;DHT22;38354;52.892;6.148;2022-11-12T05:05:47;5.10;99.90
52435;DHT22;38354;52.892;6.148;2022-11-12T05:08:13;5.10;99.90
52435;DHT22;38354;52.892;6.148;2022-11-12T05:10:38;5.20;99.90
52435;DHT22;38354;52.892;6.148;2022-11-12T05:13:04;5.10;99.90
52435;DHT22;38354;52.892;6.148;2022-11-12T05:15:30;5.10;99.90
52435;DHT22;38354;52.892;6.148;2022-11-12T05:17:55;5.00;99.90
52435;DHT22;38354;52.892;6.148;2022-11-12T05:20:21;5.00;99.90
52435;DHT22;38354;52.892;6.148;2022-11-12T05:22:46;4.90;99.90
52435;DHT22;38354;52.892;6.148;2022-11-12T05:25:12;4.90;99.90
52435;DHT22;38354;52.892;6.148;2022-11-12T05:27:38;4.90;99.90
52435;DHT22;38354;52.892;6.148;2022-11-12T05:30:05;4.90;99.90
52435;DHT22;38354;52.892;6.148;2022-11-12T05:32:32;4.90;99.90
52435;DHT22;38354;52.892;6.148;2022-11-12T05:34:57;5.00;99.90
52435;DHT22;38354;52.892;6.148;2022-11-12T05:37:23;5.00;99.90
52435;DHT22;38354;52.892;6.148;2022-11-12T05:39:49;5.20;99.90
52435;DHT22;38354;52.892;6.148;2022-11-12T05:42:14;5.20;99.90
52435;DHT22;38354;52.892;6.148;2022-11-12T05:44:40;5.20;99.90
52435;DHT22;38354;52.892;6.148;2022-11-12T05:47:06;5.30;99.90
52435;DHT22;38354;52.892;6.148;2022-11-12T05:49:32;5.30;99.90
52435;DHT22;38354;52.892;6.148;2022-11-12T05:51:57;5.30;99.90
52435;DHT22;38354;52.892;6.148;2022-11-12T05:54:23;5.30;99.90
52435;DHT22;38354;52.892;6.148;2022-11-12T05:56:51;5.40;99.90
52435;DHT22;38354;52.892;6.148;2022-11-12T05:59:17;5.40;99.90
52435;DHT22;38354;52.892;6.148;2022-11-12T06:01:43;5.50;99.90
52435;DHT22;38354;52.892;6.148;2022-11-12T06:04:10;5.50;99.90
52435;DHT22;38354;52.892;6.148;2022-11-12T06:06:36;5.50;99.90
52435;DHT22;38354;52.892;6.148;2022-11-12T06:09:03;5.60;99.90
52435;DHT22;38354;52.892;6.148;2022-11-12T06:11:28;5.60;99.90
52435;DHT22;38354;52.892;6.148;2022-11-12T06:13:54;5.60;99.90
52435;DHT22;38354;52.892;6.148;2022-11-12T06:16:20;5.60;99.90
52435;DHT22;38354;52.892;6.148;2022-11-12T06:18:45;5.70;99.90
52435;DHT22;38354;52.892;6.148;2022-11-12T06:21:11;5.70;99.90
52435;DHT22;38354;52.892;6.148;2022-11-12T06:23:54;5.70;99.90
52435;DHT22;38354;52.892;6.148;2022-11-12T06:26:21;5.70;99.90
52435;DHT22;38354;52.892;6.148;2022-11-12T06:28:47;5.80;99.90
52435;DHT22;38354;52.892;6.148;2022-11-12T06:31:14;5.80;99.90
52435;DHT22;38354;52.892;6.148;2022-11-12T06:33:40;5.80;99.90
52435;DHT22;38354;52.892;6.148;2022-11-12T06:36:10;5.80;99.90
52435;DHT22;38354;52.892;6.148;2022-11-12T06:38:37;5.90;99.90
52435;DHT22;38354;52.892;6.148;2022-11-12T06:41:04;5.90;99.90
52435;DHT22;38354;52.892;6.148;2022-11-12T06:43:32;5.90;99.90
52435;DHT22;38354;52.892;6.148;2022-11-12T06:46:10;5.90;99.90
52435;DHT22;38354;52.892;6.148;2022-11-12T06:48:36;6.00;99.90
52435;DHT22;38354;52.892;6.148;2022-11-12T06:51:11;6.00;99.90
52435;DHT22;38354;52.892;6.148;2022-11-12T06:53:39;6.00;99.90
52435;DHT22;38354;52.892;6.148;2022-11-12T06:56:06;6.00;99.90
52435;DHT22;38354;52.892;6.148;2022-11-12T06:58:32;6.10;99.90
52435;DHT22;38354;52.892;6.148;2022-11-12T07:01:21;6.10;99.90
52435;DHT22;38354;52.892;6.148;2022-11-12T07:03:52;6.10;99.90
52435;DHT22;38354;52.892;6.148;2022-11-12T07:06:18;6.10;99.90
52435;DHT22;38354;52.892;6.148;2022-11-12T07:08:45;6.10;99.90
52435;DHT22;38354;52.892;6.148;2022-11-12T07:11:12;6.10;99.90
52435;DHT22;38354;52.892;6.148;2022-11-12T07:13:38;6.20;99.90
52435;DHT22;38354;52.892;6.148;2022-11-12T07:16:05;6.20;99.90
52435;DHT22;38354;52.892;6.148;2022-11-12T07:18:33;6.20;99.90
52435;DHT22;38354;52.892;6.148;2022-11-12T07:21:10;6.30;99.90
52435;DHT22;38354;52.892;6.148;2022-11-12T07:23:36;6.20;99.90
52435;DHT22;38354;52.892;6.148;2022-11-12T07:26:05;6.30;99.90
52435;DHT22;38354;52.892;6.148;2022-11-12T07:28:31;6.30;99.90
52435;DHT22;38354;52.892;6.148;2022-11-12T07:31:02;6.30;99.90
52435;DHT22;38354;52.892;6.148;2022-11-12T07:33:29;6.30;99.90
52435;DHT22;38354;52.892;6.148;2022-11-12T07:36:21;6.40;99.90
52435;DHT22;38354;52.892;6.148;2022-11-12T07:38:50;6.40;99.90
52435;DHT22;38354;52.892;6.148;2022-11-12T07:41:18;6.40;99.90
52435;DHT22;38354;52.892;6.148;2022-11-12T07:43:45;6.40;99.90
52435;DHT22;38354;52.892;6.148;2022-11-12T07:46:15;6.50;99.90
52435;DHT22;38354;52.892;6.148;2022-11-12T07:48:42;6.50;99.90
52435;DHT22;38354;52.892;6.148;2022-11-12T07:53:39;6.50;99.90
52435;DHT22;38354;52.892;6.148;2022-11-12T07:56:05;6.50;99.90
52435;DHT22;38354;52.892;6.148;2022-11-12T07:58:32;6.50;99.90
52435;DHT22;38354;52.892;6.148;2022-11-12T08:01:18;6.50;99.90
52435;DHT22;38354;52.892;6.148;2022-11-12T08:03:45;6.50;99.90
52435;DHT22;38354;52.892;6.148;2022-11-12T08:06:10;6.50;99.90
52435;DHT22;38354;52.892;6.148;2022-11-12T08:08:36;6.50;99.90
52435;DHT22;38354;52.892;6.148;2022-11-12T08:11:02;6.50;99.90
52435;DHT22;38354;52.892;6.148;2022-11-12T08:13:27;6.60;99.90
52435;DHT22;38354;52.892;6.148;2022-11-12T08:15:56;6.50;99.90
52435;DHT22;38354;52.892;6.148;2022-11-12T08:18:22;6.50;99.90
52435;DHT22;38354;52.892;6.148;2022-11-12T08:20:47;6.60;99.90
52435;DHT22;38354;52.892;6.148;2022-11-12T08:23:13;6.60;99.90
52435;DHT22;38354;52.892;6.148;2022-11-12T08:25:38;6.60;99.90
52435;DHT22;38354;52.892;6.148;2022-11-12T08:28:04;6.60;99.90
52435;DHT22;38354;52.892;6.148;2022-11-12T08:30:30;6.70;99.90
52435;DHT22;38354;52.892;6.148;2022-11-12T08:32:57;6.70;99.90
52435;DHT22;38354;52.892;6.148;2022-11-12T08:35:24;6.70;99.90
52435;DHT22;38354;52.892;6.148;2022-11-12T08:37:50;6.70;99.90
52435;DHT22;38354;52.892;6.148;2022-11-12T08:40:16;6.80;99.90
52435;DHT22;38354;52.892;6.148;2022-11-12T08:42:41;6.80;99.90
52435;DHT22;38354;52.892;6.148;2022-11-12T08:45:07;6.90;99.90
52435;DHT22;38354;52.892;6.148;2022-11-12T08:47:34;6.90;99.90
52435;DHT22;38354;52.892;6.148;2022-11-12T08:50:00;6.90;99.90
52435;DHT22;38354;52.892;6.148;2022-11-12T08:52:26;7.00;99.90
52435;DHT22;38354;52.892;6.148;2022-11-12T08:54:52;7.00;99.90
52435;DHT22;38354;52.892;6.148;2022-11-12T08:57:18;7.10;99.90
52435;DHT22;38354;52.892;6.148;2022-11-12T08:59:43;7.10;99.90
52435;DHT22;38354;52.892;6.148;2022-11-12T09:02:12;7.10;99.90
52435;DHT22;38354;52.892;6.148;2022-11-12T09:04:38;7.20;99.90
52435;DHT22;38354;52.892;6.148;2022-11-12T09:07:07;7.10;99.90
52435;DHT22;38354;52.892;6.148;2022-11-12T09:09:32;7.10;99.90
52435;DHT22;38354;52.892;6.148;2022-11-12T09:11:58;7.10;99.90
52435;DHT22;38354;52.892;6.148;2022-11-12T09:14:57;7.10;99.90
52435;DHT22;38354;52.892;6.148;2022-11-12T09:17:22;7.10;99.90
52435;DHT22;38354;52.892;6.148;2022-11-12T09:19:48;7.10;99.90
52435;DHT22;38354;52.892;6.148;2022-11-12T09:22:14;7.10;99.90
52435;DHT22;38354;52.892;6.148;2022-11-12T09:24:39;7.10;99.90
52435;DHT22;38354;52.892;6.148;2022-11-12T09:27:05;7.20;99.90
52435;DHT22;38354;52.892;6.148;2022-11-12T09:29:33;7.20;99.90
52435;DHT22;38354;52.892;6.148;2022-11-12T09:31:59;7.20;99.90
52435;DHT22;38354;52.892;6.148;2022-11-12T09:34:24;7.30;99.90
52435;DHT22;38354;52.892;6.148;2022-11-12T09:36:50;7.30;99.90
52435;DHT22;38354;52.892;6.148;2022-11-12T09:39:16;7.30;99.90
52435;DHT22;38354;52.892;6.148;2022-11-12T09:41:42;7.30;99.90
52435;DHT22;38354;52.892;6.148;2022-11-12T09:44:25;7.30;99.90
52435;DHT22;38354;52.892;6.148;2022-11-12T09:46:54;7.40;99.90
52435;DHT22;38354;52.892;6.148;2022-11-12T09:49:31;7.40;99.90
52435;DHT22;38354;52.892;6.148;2022-11-12T09:52:04;7.40;99.90
52435;DHT22;38354;52.892;6.148;2022-11-12T09:54:32;7.40;99.90
52435;DHT22;38354;52.892;6.148;2022-11-12T09:57:00;7.40;99.90
52435;DHT22;38354;52.892;6.148;2022-11-12T09:59:31;7.40;99.90
52435;DHT22;38354;52.892;6.148;2022-11-12T10:02:33;7.40;99.90
52435;DHT22;38354;52.892;6.148;2022-11-12T10:05:33;7.40;99.90
52435;DHT22;38354;52.892;6.148;2022-11-12T10:10:48;7.50;99.90
52435;DHT22;38354;52.892;6.148;2022-11-12T10:13:56;7.50;99.90
52435;DHT22;38354;52.892;6.148;2022-11-12T10:16:39;7.60;99.90
52435;DHT22;38354;52.892;6.148;2022-11-12T10:24:36;7.60;99.90
52435;DHT22;38354;52.892;6.148;2022-11-12T10:27:19;7.70;99.90
52435;DHT22;38354;52.892;6.148;2022-11-12T10:32:20;7.70;99.90
52435;DHT22;38354;52.892;6.148;2022-11-12T10:34:46;7.70;99.90
52435;DHT22;38354;52.892;6.148;2022-11-12T10:37:19;7.80;99.90
52435;DHT22;38354;52.892;6.148;2022-11-12T10:39:46;7.90;99.90
52435;DHT22;38354;52.892;6.148;2022-11-12T10:42:14;7.90;99.90
52435;DHT22;38354;52.892;6.148;2022-11-12T10:44:41;7.90;99.90
52435;DHT22;38354;52.892;6.148;2022-11-12T10:49:42;8.00;99.90
52435;DHT22;38354;52.892;6.148;2022-11-12T10:52:22;8.10;99.90
52435;DHT22;38354;52.892;6.148;2022-11-12T10:54:48;8.10;99.90
52435;DHT22;38354;52.892;6.148;2022-11-12T10:57:25;8.20;99.90
52435;DHT22;38354;52.892;6.148;2022-11-12T11:02:47;8.20;99.90
52435;DHT22;38354;52.892;6.148;2022-11-12T11:07:58;8.40;99.90
52435;DHT22;38354;52.892;6.148;2022-11-12T11:10:32;8.40;99.90
52435;DHT22;38354;52.892;6.148;2022-11-12T11:13:21;8.60;99.90
52435;DHT22;38354;52.892;6.148;2022-11-12T11:16:03;8.70;99.90
52435;DHT22;38354;52.892;6.148;2022-11-12T11:18:31;9.10;99.90
52435;DHT22;38354;52.892;6.148;2022-11-12T11:21:07;9.30;99.90
52435;DHT22;38354;52.892;6.148;2022-11-12T11:23:55;9.60;99.90
52435;DHT22;38354;52.892;6.148;2022-11-12T11:29:56;10.10;99.90
52435;DHT22;38354;52.892;6.148;2022-11-12T12:03:37;12.40;99.90
52435;DHT22;38354;52.892;6.148;2022-11-12T12:06:28;12.50;99.90
52435;DHT22;38354;52.892;6.148;2022-11-12T12:09:10;12.60;99.90
52435;DHT22;38354;52.892;6.148;2022-11-12T12:11:57;12.70;99.90
52435;DHT22;38354;52.892;6.148;2022-11-12T12:17:27;13.00;99.90
52435;DHT22;38354;52.892;6.148;2022-11-12T12:20:01;13.20;99.90
52435;DHT22;38354;52.892;6.148;2022-11-12T12:22:41;13.30;99.90
52435;DHT22;38354;52.892;6.148;2022-11-12T12:25:17;13.40;99.90
52435;DHT22;38354;52.892;6.148;2022-11-12T12:27:58;13.50;99.90
52435;DHT22;38354;52.892;6.148;2022-11-12T12:30:25;13.70;99.90
52435;DHT22;38354;52.892;6.148;2022-11-12T12:32:58;13.80;99.90
52435;DHT22;38354;52.892;6.148;2022-11-12T12:35:34;13.90;99.90
52435;DHT22;38354;52.892;6.148;2022-11-12T12:38:34;14.10;99.90
52435;DHT22;38354;52.892;6.148;2022-11-12T12:41:23;14.20;99.90
52435;DHT22;38354;52.892;6.148;2022-11-12T12:43:56;14.30;99.90
52435;DHT22;38354;52.892;6.148;2022-11-12T12:46:26;14.40;99.90
52435;DHT22;38354;52.892;6.148;2022-11-12T12:48:53;14.50;99.90
52435;DHT22;38354;52.892;6.148;2022-11-12T12:51:20;14.60;99.90
52435;DHT22;38354;52.892;6.148;2022-11-12T12:53:46;14.70;99.90
52435;DHT22;38354;52.892;6.148;2022-11-12T12:58:47;14.80;99.90
52435;DHT22;38354;52.892;6.148;2022-11-12T13:01:31;14.90;99.90
52435;DHT22;38354;52.892;6.148;2022-11-12T13:04:07;14.90;99.90
52435;DHT22;38354;52.892;6.148;2022-11-12T13:09:23;14.90;99.90
52435;DHT22;38354;52.892;6.148;2022-11-12T13:11:53;14.90;99.90
52435;DHT22;38354;52.892;6.148;2022-11-12T13:37:58;15.20;99.90
52435;DHT22;38354;52.892;6.148;2022-11-12T13:40:50;15.20;99.90
52435;DHT22;38354;52.892;6.148;2022-11-12T13:43:29;15.20;99.90
52435;DHT22;38354;52.892;6.148;2022-11-12T13:46:25;15.20;99.90
52435;DHT22;38354;52.892;6.148;2022-11-12T13:51:38;15.30;99.90
52435;DHT22;38354;52.892;6.148;2022-11-12T13:54:37;15.40;99.90
52435;DHT22;38354;52.892;6.148;2022-11-12T14:00:05;15.30;99.90
52435;DHT22;38354;52.892;6.148;2022-11-12T14:02:32;15.30;99.90
52435;DHT22;38354;52.892;6.148;2022-11-12T14:04:58;15.40;99.90
52435;DHT22;38354;52.892;6.148;2022-11-12T14:10:29;15.70;99.90
52435;DHT22;38354;52.892;6.148;2022-11-12T14:21:31;15.60;99.90
52435;DHT22;38354;52.892;6.148;2022-11-12T14:23:56;15.50;99.90
52435;DHT22;38354;52.892;6.148;2022-11-12T14:26:40;15.30;99.90
52435;DHT22;38354;52.892;6.148;2022-11-12T14:29:06;15.20;99.90
52435;DHT22;38354;52.892;6.148;2022-11-12T14:31:32;15.00;99.90
52435;DHT22;38354;52.892;6.148;2022-11-12T14:37:46;14.70;99.90
52435;DHT22;38354;52.892;6.148;2022-11-12T14:40:16;14.60;99.90
52435;DHT22;38354;52.892;6.148;2022-11-12T14:42:42;14.50;99.90
52435;DHT22;38354;52.892;6.148;2022-11-12T14:45:36;14.40;99.90
52435;DHT22;38354;52.892;6.148;2022-11-12T14:48:07;14.30;99.90
52435;DHT22;38354;52.892;6.148;2022-11-12T14:50:33;14.20;99.90
52435;DHT22;38354;52.892;6.148;2022-11-12T14:53:04;14.10;99.90
52435;DHT22;38354;52.892;6.148;2022-11-12T14:55:34;14.10;99.90
52435;DHT22;38354;52.892;6.148;2022-11-12T14:58:01;13.90;99.90
52435;DHT22;38354;52.892;6.148;2022-11-12T15:03:00;13.70;99.90
52435;DHT22;38354;52.892;6.148;2022-11-12T15:05:26;13.50;99.90
52435;DHT22;38354;52.892;6.148;2022-11-12T15:07:57;13.40;99.90
52435;DHT22;38354;52.892;6.148;2022-11-12T15:13:13;13.10;99.90
52435;DHT22;38354;52.892;6.148;2022-11-12T15:18:17;12.90;99.90
52435;DHT22;38354;52.892;6.148;2022-11-12T15:20:44;12.80;99.90
52435;DHT22;38354;52.892;6.148;2022-11-12T15:23:18;12.70;99.90
52435;DHT22;38354;52.892;6.148;2022-11-12T15:25:44;12.70;99.90
52435;DHT22;38354;52.892;6.148;2022-11-12T15:28:20;12.60;99.90
52435;DHT22;38354;52.892;6.148;2022-11-12T15:33:25;12.40;99.90
52435;DHT22;38354;52.892;6.148;2022-11-12T15:35:56;12.20;99.90
52435;DHT22;38354;52.892;6.148;2022-11-12T15:38:32;12.10;99.90
52435;DHT22;38354;52.892;6.148;2022-11-12T15:41:02;12.00;99.90
52435;DHT22;38354;52.892;6.148;2022-11-12T15:43:31;11.90;99.90
52435;DHT22;38354;52.892;6.148;2022-11-12T15:45:58;11.80;99.90
52435;DHT22;38354;52.892;6.148;2022-11-12T15:48:24;11.70;99.90
52435;DHT22;38354;52.892;6.148;2022-11-12T15:50:50;11.60;99.90
52435;DHT22;38354;52.892;6.148;2022-11-12T15:53:15;11.60;99.90
52435;DHT22;38354;52.892;6.148;2022-11-12T15:55:42;11.50;99.90
52435;DHT22;38354;52.892;6.148;2022-11-12T15:58:20;11.40;99.90
52435;DHT22;38354;52.892;6.148;2022-11-12T16:00:50;11.30;99.90
52435;DHT22;38354;52.892;6.148;2022-11-12T16:03:20;11.20;99.90
52435;DHT22;38354;52.892;6.148;2022-11-12T16:05:46;11.20;99.90
52435;DHT22;38354;52.892;6.148;2022-11-12T16:08:13;11.10;99.90
52435;DHT22;38354;52.892;6.148;2022-11-12T16:10:40;11.00;99.90
52435;DHT22;38354;52.892;6.148;2022-11-12T16:13:13;10.90;99.90
52435;DHT22;38354;52.892;6.148;2022-11-12T16:15:39;10.90;99.90
52435;DHT22;38354;52.892;6.148;2022-11-12T16:18:05;10.80;99.90
52435;DHT22;38354;52.892;6.148;2022-11-12T16:20:34;10.70;99.90
52435;DHT22;38354;52.892;6.148;2022-11-12T16:23:00;10.60;99.90
52435;DHT22;38354;52.892;6.148;2022-11-12T16:25:31;10.50;99.90
52435;DHT22;38354;52.892;6.148;2022-11-12T16:27:59;10.50;99.90
52435;DHT22;38354;52.892;6.148;2022-11-12T16:30:30;10.40;99.90
52435;DHT22;38354;52.892;6.148;2022-11-12T16:32:57;10.40;99.90
52435;DHT22;38354;52.892;6.148;2022-11-12T16:35:23;10.30;99.90
52435;DHT22;38354;52.892;6.148;2022-11-12T16:37:52;10.30;99.90
52435;DHT22;38354;52.892;6.148;2022-11-12T16:40:20;10.20;99.90
52435;DHT22;38354;52.892;6.148;2022-11-12T16:42:46;10.20;99.90
52435;DHT22;38354;52.892;6.148;2022-11-12T16:45:14;10.10;99.90
52435;DHT22;38354;52.892;6.148;2022-11-12T16:47:45;10.00;99.90
52435;DHT22;38354;52.892;6.148;2022-11-12T16:50:13;10.00;99.90
52435;DHT22;38354;52.892;6.148;2022-11-12T16:52:39;9.90;99.90
52435;DHT22;38354;52.892;6.148;2022-11-12T16:55:05;9.90;99.90
52435;DHT22;38354;52.892;6.148;2022-11-12T16:57:31;9.90;99.90
52435;DHT22;38354;52.892;6.148;2022-11-12T16:59:57;9.80;99.90
52435;DHT22;38354;52.892;6.148;2022-11-12T17:02:23;9.70;99.90
52435;DHT22;38354;52.892;6.148;2022-11-12T17:04:49;9.70;99.90
52435;DHT22;38354;52.892;6.148;2022-11-12T17:07:14;9.70;99.90
52435;DHT22;38354;52.892;6.148;2022-11-12T17:09:41;9.60;99.90
52435;DHT22;38354;52.892;6.148;2022-11-12T17:12:07;9.60;99.90
52435;DHT22;38354;52.892;6.148;2022-11-12T17:14:33;9.60;99.90
52435;DHT22;38354;52.892;6.148;2022-11-12T17:16:59;9.50;99.90
52435;DHT22;38354;52.892;6.148;2022-11-12T17:19:25;9.50;99.90
52435;DHT22;38354;52.892;6.148;2022-11-12T17:21:50;9.40;99.90
52435;DHT22;38354;52.892;6.148;2022-11-12T17:24:16;9.40;99.90
52435;DHT22;38354;52.892;6.148;2022-11-12T17:26:43;9.40;99.90
52435;DHT22;38354;52.892;6.148;2022-11-12T17:29:08;9.40;99.90
52435;DHT22;38354;52.892;6.148;2022-11-12T17:31:34;9.30;99.90
52435;DHT22;38354;52.892;6.148;2022-11-12T17:34:02;9.30;99.90
52435;DHT22;38354;52.892;6.148;2022-11-12T17:36:28;9.20;99.90
52435;DHT22;38354;52.892;6.148;2022-11-12T17:38:55;9.20;99.90
52435;DHT22;38354;52.892;6.148;2022-11-12T17:41:21;9.10;99.90
52435;DHT22;38354;52.892;6.148;2022-11-12T17:43:47;9.10;99.90
52435;DHT22;38354;52.892;6.148;2022-11-12T17:46:13;9.10;99.90
52435;DHT22;38354;52.892;6.148;2022-11-12T17:48:39;9.00;99.90
52435;DHT22;38354;52.892;6.148;2022-11-12T17:51:12;9.00;99.90
52435;DHT22;38354;52.892;6.148;2022-11-12T17:53:39;9.00;99.90
52435;DHT22;38354;52.892;6.148;2022-11-12T17:56:06;9.00;99.90
52435;DHT22;38354;52.892;6.148;2022-11-12T17:58:32;8.90;99.90
52435;DHT22;38354;52.892;6.148;2022-11-12T18:01:11;9.00;99.90
52435;DHT22;38354;52.892;6.148;2022-11-12T18:03:42;8.90;99.90
52435;DHT22;38354;52.892;6.148;2022-11-12T18:06:18;8.90;99.90
52435;DHT22;38354;52.892;6.148;2022-11-12T18:08:45;8.90;99.90
52435;DHT22;38354;52.892;6.148;2022-11-12T18:11:13;8.90;99.90
52435;DHT22;38354;52.892;6.148;2022-11-12T18:13:39;8.80;99.90
52435;DHT22;38354;52.892;6.148;2022-11-12T18:18:45;8.90;99.90
52435;DHT22;38354;52.892;6.148;2022-11-12T18:21:11;8.90;99.90
52435;DHT22;38354;52.892;6.148;2022-11-12T18:23:38;8.90;99.90
52435;DHT22;38354;52.892;6.148;2022-11-12T18:26:04;8.90;99.90
52435;DHT22;38354;52.892;6.148;2022-11-12T18:28:30;8.90;99.90
52435;DHT22;38354;52.892;6.148;2022-11-12T18:31:04;8.90;99.90
52435;DHT22;38354;52.892;6.148;2022-11-12T18:33:30;8.90;99.90
52435;DHT22;38354;52.892;6.148;2022-11-12T18:36:07;8.80;99.90
52435;DHT22;38354;52.892;6.148;2022-11-12T18:38:34;8.80;99.90
52435;DHT22;38354;52.892;6.148;2022-11-12T18:41:11;8.80;99.90
52435;DHT22;38354;52.892;6.148;2022-11-12T18:43:37;8.70;99.90
52435;DHT22;38354;52.892;6.148;2022-11-12T18:46:04;8.70;99.90
52435;DHT22;38354;52.892;6.148;2022-11-12T18:48:31;8.70;99.90
52435;DHT22;38354;52.892;6.148;2022-11-12T18:50:59;8.70;99.90
52435;DHT22;38354;52.892;6.148;2022-11-12T18:53:29;8.60;99.90
52435;DHT22;38354;52.892;6.148;2022-11-12T18:55:58;8.60;99.90
52435;DHT22;38354;52.892;6.148;2022-11-12T18:58:25;8.60;99.90
52435;DHT22;38354;52.892;6.148;2022-11-12T19:00:50;8.60;99.90
52435;DHT22;38354;52.892;6.148;2022-11-12T19:03:16;8.50;99.90
52435;DHT22;38354;52.892;6.148;2022-11-12T19:05:42;8.50;99.90
52435;DHT22;38354;52.892;6.148;2022-11-12T19:08:07;8.50;99.90
52435;DHT22;38354;52.892;6.148;2022-11-12T19:10:33;8.40;99.90
52435;DHT22;38354;52.892;6.148;2022-11-12T19:12:59;8.40;99.90
52435;DHT22;38354;52.892;6.148;2022-11-12T19:15:28;8.30;99.90
52435;DHT22;38354;52.892;6.148;2022-11-12T19:17:54;8.30;99.90
52435;DHT22;38354;52.892;6.148;2022-11-12T19:20:20;8.30;99.90
52435;DHT22;38354;52.892;6.148;2022-11-12T19:22:45;8.30;99.90
52435;DHT22;38354;52.892;6.148;2022-11-12T19:25:11;8.30;99.90
52435;DHT22;38354;52.892;6.148;2022-11-12T19:27:37;8.30;99.90
52435;DHT22;38354;52.892;6.148;2022-11-12T19:30:02;8.20;99.90
52435;DHT22;38354;52.892;6.148;2022-11-12T19:32:30;8.20;99.90
52435;DHT22;38354;52.892;6.148;2022-11-12T19:34:55;8.20;99.90
52435;DHT22;38354;52.892;6.148;2022-11-12T19:37:21;8.20;99.90
52435;DHT22;38354;52.892;6.148;2022-11-12T19:39:46;8.10;99.90
52435;DHT22;38354;52.892;6.148;2022-11-12T19:42:12;8.10;99.90
52435;DHT22;38354;52.892;6.148;2022-11-12T19:44:37;8.10;99.90
52435;DHT22;38354;52.892;6.148;2022-11-12T19:47:03;8.10;99.90
52435;DHT22;38354;52.892;6.148;2022-11-12T19:49:29;8.00;99.90
52435;DHT22;38354;52.892;6.148;2022-11-12T19:51:54;8.00;99.90
52435;DHT22;38354;52.892;6.148;2022-11-12T19:54:20;8.00;99.90
52435;DHT22;38354;52.892;6.148;2022-11-12T19:56:46;8.00;99.90
52435;DHT22;38354;52.892;6.148;2022-11-12T19:59:11;7.90;99.90
52435;DHT22;38354;52.892;6.148;2022-11-12T20:01:37;7.90;99.90
52435;DHT22;38354;52.892;6.148;2022-11-12T20:04:02;7.90;99.90
52435;DHT22;38354;52.892;6.148;2022-11-12T20:06:28;7.90;99.90
52435;DHT22;38354;52.892;6.148;2022-11-12T20:08:57;7.90;99.90
52435;DHT22;38354;52.892;6.148;2022-11-12T20:11:23;7.90;99.90
52435;DHT22;38354;52.892;6.148;2022-11-12T20:13:56;7.90;99.90
52435;DHT22;38354;52.892;6.148;2022-11-12T20:16:22;7.90;99.90
52435;DHT22;38354;52.892;6.148;2022-11-12T20:18:52;7.90;99.90
52435;DHT22;38354;52.892;6.148;2022-11-12T20:21:18;7.90;99.90
52435;DHT22;38354;52.892;6.148;2022-11-12T20:23:44;8.00;99.90
52435;DHT22;38354;52.892;6.148;2022-11-12T20:26:12;8.00;99.90
52435;DHT22;38354;52.892;6.148;2022-11-12T20:28:39;8.10;99.90
52435;DHT22;38354;52.892;6.148;2022-11-12T20:31:11;8.10;99.90
52435;DHT22;38354;52.892;6.148;2022-11-12T20:33:37;8.10;99.90
52435;DHT22;38354;52.892;6.148;2022-11-12T20:36:09;8.10;99.90
52435;DHT22;38354;52.892;6.148;2022-11-12T20:38:40;8.10;99.90
52435;DHT22;38354;52.892;6.148;2022-11-12T20:41:06;8.20;99.90
52435;DHT22;38354;52.892;6.148;2022-11-12T20:43:35;8.20;99.90
52435;DHT22;38354;52.892;6.148;2022-11-12T20:46:01;8.20;99.90
52435;DHT22;38354;52.892;6.148;2022-11-12T20:48:27;8.30;99.90
52435;DHT22;38354;52.892;6.148;2022-11-12T20:51:08;8.20;99.90
52435;DHT22;38354;52.892;6.148;2022-11-12T20:53:35;8.20;99.90
52435;DHT22;38354;52.892;6.148;2022-11-12T20:56:17;8.20;99.90
52435;DHT22;38354;52.892;6.148;2022-11-12T20:58:44;8.20;99.90
52435;DHT22;38354;52.892;6.148;2022-11-12T21:01:13;8.20;99.90
52435;DHT22;38354;52.892;6.148;2022-11-12T21:03:40;8.20;99.90
52435;DHT22;38354;52.892;6.148;2022-11-12T21:06:09;8.20;99.90
52435;DHT22;38354;52.892;6.148;2022-11-12T21:08:36;8.20;99.90
52435;DHT22;38354;52.892;6.148;2022-11-12T21:11:06;8.10;99.90
52435;DHT22;38354;52.892;6.148;2022-11-12T21:13:36;8.20;99.90
52435;DHT22;38354;52.892;6.148;2022-11-12T21:16:02;8.10;99.90
52435;DHT22;38354;52.892;6.148;2022-11-12T21:18:29;8.10;99.90
52435;DHT22;38354;52.892;6.148;2022-11-12T21:21:09;8.10;99.90
52435;DHT22;38354;52.892;6.148;2022-11-12T21:23:38;8.10;99.90
52435;DHT22;38354;52.892;6.148;2022-11-12T21:26:06;8.00;99.90
52435;DHT22;38354;52.892;6.148;2022-11-12T21:28:33;8.00;99.90
52435;DHT22;38354;52.892;6.148;2022-11-12T21:31:15;8.00;99.90
52435;DHT22;38354;52.892;6.148;2022-11-12T21:33:41;8.00;99.90
52435;DHT22;38354;52.892;6.148;2022-11-12T21:36:07;7.90;99.90
52435;DHT22;38354;52.892;6.148;2022-11-12T21:38:32;8.00;99.90
52435;DHT22;38354;52.892;6.148;2022-11-12T21:41:05;7.90;99.90
52435;DHT22;38354;52.892;6.148;2022-11-12T21:43:35;7.90;99.90
52435;DHT22;38354;52.892;6.148;2022-11-12T21:46:02;7.80;99.90
52435;DHT22;38354;52.892;6.148;2022-11-12T21:48:27;7.80;99.90
52435;DHT22;38354;52.892;6.148;2022-11-12T21:50:53;7.80;99.90
52435;DHT22;38354;52.892;6.148;2022-11-12T21:53:19;7.80;99.90
52435;DHT22;38354;52.892;6.148;2022-11-12T21:55:44;7.70;99.90
52435;DHT22;38354;52.892;6.148;2022-11-12T21:58:10;7.70;99.90
52435;DHT22;38354;52.892;6.148;2022-11-12T22:00:35;7.70;99.90
52435;DHT22;38354;52.892;6.148;2022-11-12T22:03:01;7.60;99.90
52435;DHT22;38354;52.892;6.148;2022-11-12T22:05:27;7.50;99.90
52435;DHT22;38354;52.892;6.148;2022-11-12T22:07:53;7.50;99.90
52435;DHT22;38354;52.892;6.148;2022-11-12T22:10:18;7.50;99.90
52435;DHT22;38354;52.892;6.148;2022-11-12T22:12:44;7.40;99.90
52435;DHT22;38354;52.892;6.148;2022-11-12T22:15:09;7.40;99.90
52435;DHT22;38354;52.892;6.148;2022-11-12T22:17:35;7.40;99.90
52435;DHT22;38354;52.892;6.148;2022-11-12T22:20:01;7.40;99.90
52435;DHT22;38354;52.892;6.148;2022-11-12T22:22:26;7.30;99.90
52435;DHT22;38354;52.892;6.148;2022-11-12T22:24:52;7.30;99.90
52435;DHT22;38354;52.892;6.148;2022-11-12T22:27:18;7.30;99.90
52435;DHT22;38354;52.892;6.148;2022-11-12T22:29:44;7.30;99.90
52435;DHT22;38354;52.892;6.148;2022-11-12T22:32:11;7.20;99.90
52435;DHT22;38354;52.892;6.148;2022-11-12T22:34:36;7.20;99.90
52435;DHT22;38354;52.892;6.148;2022-11-12T22:37:02;7.20;99.90
52435;DHT22;38354;52.892;6.148;2022-11-12T22:39:27;7.10;99.90
52435;DHT22;38354;52.892;6.148;2022-11-12T22:41:53;7.10;99.90
52435;DHT22;38354;52.892;6.148;2022-11-12T22:44:18;7.00;99.90
52435;DHT22;38354;52.892;6.148;2022-11-12T22:46:44;7.00;99.90
52435;DHT22;38354;52.892;6.148;2022-11-12T22:49:10;7.00;99.90
52435;DHT22;38354;52.892;6.148;2022-11-12T22:51:35;7.00;99.90
52435;DHT22;38354;52.892;6.148;2022-11-12T22:54:04;6.90;99.90
52435;DHT22;38354;52.892;6.148;2022-11-12T22:56:30;6.90;99.90